createdAt,value
2023-03-26T00:02:12.451Z,0.80
2023-03-26T00:04:38.893Z,0.98
2023-03-26T00:07:06.675Z,1.08
2023-03-26T00:09:33.230Z,0.93
2023-03-26T00:11:59.696Z,0.80
2023-03-26T00:14:26.119Z,0.98
2023-03-26T00:16:52.573Z,0.90
2023-03-26T00:19:19.128Z,0.70
2023-03-26T00:21:45.614Z,0.93
2023-03-26T00:24:14.096Z,0.77
2023-03-26T00:26:41.066Z,0.80
2023-03-26T00:29:07.864Z,0.60
2023-03-26T00:31:35.195Z,0.77
2023-03-26T00:34:01.669Z,0.77
2023-03-26T00:36:28.497Z,0.77
2023-03-26T00:38:55.263Z,0.70
2023-03-26T00:41:25.350Z,0.70
2023-03-26T00:43:54.402Z,0.93
2023-03-26T00:46:20.859Z,0.90
2023-03-26T00:48:47.419Z,0.90
2023-03-26T00:51:15.830Z,0.80
2023-03-26T00:53:43.045Z,0.80
2023-03-26T00:56:09.983Z,0.90
2023-03-26T00:58:38.551Z,0.80
2023-03-26T01:01:08.773Z,0.90
2023-03-26T01:03:37.140Z,0.70
2023-03-26T01:06:05.442Z,0.80
2023-03-26T01:08:36.583Z,0.70
2023-03-26T01:11:07.622Z,0.65
2023-03-26T01:13:37.873Z,0.65
2023-03-26T01:16:14.183Z,1.08
2023-03-26T01:18:40.687Z,0.60
2023-03-26T01:21:08.163Z,0.50
2023-03-26T01:23:41.510Z,0.73
2023-03-26T01:26:16.279Z,0.60
2023-03-26T01:28:43.273Z,0.45
2023-03-26T01:31:15.040Z,0.50
2023-03-26T01:33:48.850Z,0.65
2023-03-26T01:36:21.330Z,0.70
2023-03-26T01:38:58.445Z,0.73
2023-03-26T01:41:33.653Z,0.40
2023-03-26T01:44:06.774Z,0.50
2023-03-26T01:46:34.338Z,0.30
2023-03-26T01:49:02.334Z,0.45
2023-03-26T01:51:30.986Z,0.60
2023-03-26T01:53:58.032Z,0.50
2023-03-26T01:56:31.330Z,0.55
2023-03-26T01:59:11.726Z,0.40
2023-03-26T02:01:45.391Z,0.45
2023-03-26T02:04:22.498Z,0.68
2023-03-26T02:06:54.181Z,0.57
2023-03-26T02:09:24.476Z,0.50
2023-03-26T02:11:53.572Z,0.40
2023-03-26T02:14:20.743Z,0.43
2023-03-26T02:16:47.317Z,0.40
2023-03-26T02:19:14.420Z,0.50
2023-03-26T02:21:41.774Z,0.30
2023-03-26T02:24:08.695Z,0.60
2023-03-26T02:26:36.374Z,0.77
2023-03-26T02:29:04.633Z,0.60
2023-03-26T02:31:31.147Z,0.30
2023-03-26T02:33:57.757Z,0.22
2023-03-26T02:36:24.891Z,0.60
2023-03-26T02:38:51.431Z,0.80
2023-03-26T02:41:18.196Z,0.57
2023-03-26T02:43:44.732Z,0.80
2023-03-26T02:46:12.799Z,0.60
2023-03-26T02:48:39.260Z,0.80
2023-03-26T02:51:05.898Z,0.73
2023-03-26T02:53:32.457Z,0.82
2023-03-26T02:56:00.144Z,0.88
2023-03-26T02:58:27.248Z,0.90
2023-03-26T03:00:53.901Z,0.63
2023-03-26T03:03:22.005Z,0.80
2023-03-26T03:05:48.601Z,0.80
2023-03-26T03:08:15.088Z,0.85
2023-03-26T03:10:41.536Z,0.93
2023-03-26T03:13:08.073Z,0.90
2023-03-26T03:15:34.810Z,0.75
2023-03-26T03:18:01.880Z,0.90
2023-03-26T03:20:29.746Z,0.82
2023-03-26T03:22:56.238Z,1.30
2023-03-26T03:25:22.711Z,1.20
2023-03-26T03:27:49.159Z,0.60
2023-03-26T03:30:15.896Z,1.00
2023-03-26T03:32:42.476Z,0.90
2023-03-26T03:35:09.290Z,0.70
2023-03-26T03:37:37.049Z,0.70
2023-03-26T03:40:04.331Z,0.80
2023-03-26T03:42:30.777Z,0.88
2023-03-26T03:44:57.238Z,1.25
2023-03-26T03:47:23.744Z,0.90
2023-03-26T03:49:50.439Z,1.17
2023-03-26T03:52:16.922Z,1.13
2023-03-26T03:54:44.841Z,0.88
2023-03-26T03:57:11.382Z,1.20
2023-03-26T03:59:37.892Z,1.20
2023-03-26T04:02:04.443Z,1.30
2023-03-26T04:04:31.007Z,1.30
2023-03-26T04:06:57.485Z,0.95
2023-03-26T04:09:23.960Z,1.00
2023-03-26T04:11:51.906Z,1.27
2023-03-26T04:14:18.372Z,1.13
2023-03-26T04:16:44.822Z,0.93
2023-03-26T04:19:11.244Z,0.95
2023-03-26T04:21:37.831Z,1.10
2023-03-26T04:24:04.424Z,1.13
2023-03-26T04:26:31.533Z,1.10
2023-03-26T04:29:03.288Z,1.20
2023-03-26T04:31:30.527Z,1.15
2023-03-26T04:34:07.758Z,1.35
2023-03-26T04:36:34.368Z,1.30
2023-03-26T04:39:02.839Z,1.05
2023-03-26T04:41:29.317Z,1.15
2023-03-26T04:43:56.152Z,1.50
2023-03-26T04:46:24.300Z,1.05
2023-03-26T04:48:52.321Z,1.20
2023-03-26T04:51:21.070Z,1.35
2023-03-26T04:53:52.555Z,1.00
2023-03-26T04:56:32.779Z,1.45
2023-03-26T04:59:01.209Z,1.40
2023-03-26T05:01:29.113Z,1.25
2023-03-26T05:03:55.600Z,1.35
2023-03-26T05:06:22.316Z,1.05
2023-03-26T05:08:48.896Z,1.45
2023-03-26T05:11:15.437Z,1.40
2023-03-26T05:13:41.944Z,1.15
2023-03-26T05:16:09.269Z,1.20
2023-03-26T05:18:37.079Z,1.05
2023-03-26T05:21:03.824Z,1.40
2023-03-26T05:23:30.325Z,1.23
2023-03-26T05:25:56.932Z,1.60
2023-03-26T05:28:23.401Z,1.33
2023-03-26T05:30:50.063Z,1.30
2023-03-26T05:33:16.611Z,1.27
2023-03-26T05:35:44.605Z,1.50
2023-03-26T05:38:11.208Z,1.20
2023-03-26T05:40:37.937Z,1.60
2023-03-26T05:43:04.560Z,1.45
2023-03-26T05:45:31.072Z,1.33
2023-03-26T05:47:57.696Z,1.40
2023-03-26T05:50:24.278Z,1.15
2023-03-26T05:52:52.060Z,1.17
2023-03-26T05:55:18.587Z,1.40
2023-03-26T05:57:45.165Z,1.48
2023-03-26T06:00:12.233Z,1.30
2023-03-26T06:02:38.814Z,1.58
2023-03-26T06:05:05.743Z,1.40
2023-03-26T06:07:32.211Z,1.20
2023-03-26T06:10:00.023Z,1.30
2023-03-26T06:12:26.604Z,1.55
2023-03-26T06:14:53.032Z,1.63
2023-03-26T06:17:19.581Z,1.30
2023-03-26T06:19:46.073Z,1.30
2023-03-26T06:22:12.578Z,1.50
2023-03-26T06:24:39.022Z,1.48
2023-03-26T06:27:06.799Z,1.40
2023-03-26T06:29:33.419Z,1.10
2023-03-26T06:32:12.457Z,1.40
2023-03-26T06:34:45.275Z,1.50
2023-03-26T06:37:11.793Z,1.10
2023-03-26T06:39:38.257Z,1.10
2023-03-26T06:42:04.774Z,1.60
2023-03-26T06:44:32.665Z,1.17
2023-03-26T06:46:59.140Z,1.45
2023-03-26T06:49:25.629Z,1.17
2023-03-26T06:51:52.098Z,1.30
2023-03-26T06:54:18.717Z,1.02
2023-03-26T06:56:45.279Z,1.02
2023-03-26T06:59:11.785Z,1.27
2023-03-26T07:01:39.933Z,1.23
2023-03-26T07:04:06.577Z,1.23
2023-03-26T07:06:33.066Z,1.25
2023-03-26T07:08:59.592Z,1.20
2023-03-26T07:11:26.104Z,1.10
2023-03-26T07:13:52.851Z,1.20
2023-03-26T07:16:19.548Z,1.00
2023-03-26T07:18:47.491Z,1.05
2023-03-26T07:21:14.787Z,1.20
2023-03-26T07:23:41.840Z,1.38
2023-03-26T07:26:20.312Z,1.00
2023-03-26T07:29:04.955Z,0.98
2023-03-26T07:31:41.445Z,1.25
2023-03-26T07:34:21.903Z,0.88
2023-03-26T07:36:56.174Z,1.20
2023-03-26T07:39:39.298Z,0.68
2023-03-26T07:42:16.711Z,1.08
2023-03-26T07:44:51.168Z,0.93
2023-03-26T07:47:24.396Z,1.05
2023-03-26T07:49:54.028Z,1.00
2023-03-26T07:52:20.949Z,0.82
2023-03-26T07:54:47.884Z,1.13
2023-03-26T07:57:20.339Z,1.20
2023-03-26T07:59:52.742Z,1.05
2023-03-26T08:02:34.467Z,1.10
2023-03-26T08:05:13.080Z,0.95
2023-03-26T08:07:52.681Z,1.00
2023-03-26T08:10:25.982Z,1.00
2023-03-26T08:12:57.933Z,1.10
2023-03-26T08:15:29.022Z,0.80
2023-03-26T08:18:04.345Z,1.10
2023-03-26T08:20:40.016Z,0.80
2023-03-26T08:23:13.274Z,1.00
2023-03-26T08:25:50.459Z,0.82
2023-03-26T08:28:28.609Z,0.70
2023-03-26T08:30:55.625Z,0.93
2023-03-26T08:33:25.935Z,0.93
2023-03-26T08:35:53.753Z,0.63
2023-03-26T08:38:21.393Z,0.70
2023-03-26T08:41:21.784Z,0.88
2023-03-26T08:44:11.949Z,0.80
2023-03-26T08:47:06.142Z,0.70
2023-03-26T08:49:56.345Z,0.93
2023-03-26T08:52:36.997Z,0.80
2023-03-26T08:55:21.850Z,0.80
2023-03-26T08:58:10.119Z,0.60
2023-03-26T09:00:48.721Z,0.65
2023-03-26T09:03:31.633Z,0.60
2023-03-26T09:06:19.159Z,0.68
2023-03-26T09:09:05.430Z,0.68
2023-03-26T09:11:50.852Z,0.57
2023-03-26T09:14:38.059Z,0.63
2023-03-26T09:17:24.452Z,0.50
2023-03-26T09:20:04.700Z,0.52
2023-03-26T09:22:34.069Z,0.70
2023-03-26T09:25:00.291Z,0.65
2023-03-26T09:27:40.447Z,0.68
2023-03-26T09:30:39.350Z,0.77
2023-03-26T09:33:25.634Z,0.80
2023-03-26T09:35:55.409Z,0.70
2023-03-26T09:38:37.250Z,0.60
2023-03-26T09:41:10.694Z,0.65
2023-03-26T09:44:02.237Z,0.60
2023-03-26T09:46:37.039Z,0.70
2023-03-26T09:49:17.523Z,0.70
2023-03-26T09:51:56.165Z,0.70
2023-03-26T09:54:44.166Z,0.77
2023-03-26T09:57:22.041Z,0.40
2023-03-26T10:00:03.270Z,0.60
2023-03-26T10:02:45.349Z,0.45
2023-03-26T10:05:24.631Z,0.32
2023-03-26T10:08:05.893Z,0.73
2023-03-26T10:10:40.722Z,0.60
2023-03-26T10:13:21.222Z,0.82
2023-03-26T10:16:02.522Z,0.70
2023-03-26T10:18:41.095Z,0.80
2023-03-26T10:21:16.892Z,0.60
2023-03-26T10:24:00.457Z,0.82
2023-03-26T10:26:39.149Z,0.80
2023-03-26T10:29:22.610Z,0.50
2023-03-26T10:31:59.084Z,0.60
2023-03-26T10:34:42.452Z,0.88
2023-03-26T10:37:14.036Z,0.70
2023-03-26T10:40:04.561Z,0.80
2023-03-26T10:42:50.204Z,0.50
2023-03-26T10:45:35.586Z,0.57
2023-03-26T10:48:19.499Z,0.60
2023-03-26T10:50:53.802Z,0.75
2023-03-26T10:53:31.583Z,0.60
2023-03-26T10:56:06.977Z,0.60
2023-03-26T10:58:48.319Z,0.63
2023-03-26T11:01:23.956Z,1.08
2023-03-26T11:03:54.991Z,0.50
2023-03-26T11:06:30.895Z,0.68
2023-03-26T11:09:06.848Z,0.63
2023-03-26T11:11:40.596Z,0.52
2023-03-26T11:14:24.279Z,0.57
2023-03-26T11:17:02.773Z,0.80
2023-03-26T11:19:39.265Z,0.60
2023-03-26T11:22:16.669Z,0.45
2023-03-26T11:25:02.417Z,0.57
2023-03-26T11:27:41.933Z,0.50
2023-03-26T11:30:20.520Z,0.90
2023-03-26T11:32:51.752Z,0.50
2023-03-26T11:35:41.116Z,0.80
2023-03-26T11:38:16.032Z,0.82
2023-03-26T11:40:45.099Z,0.77
2023-03-26T11:43:14.300Z,0.50
2023-03-26T11:45:44.593Z,0.70
2023-03-26T11:48:18.764Z,0.75
2023-03-26T11:50:50.081Z,0.77
2023-03-26T11:53:18.699Z,0.57
2023-03-26T11:55:49.711Z,0.50
2023-03-26T11:58:28.760Z,0.82
2023-03-26T12:00:56.061Z,0.70
2023-03-26T12:03:23.041Z,0.70
2023-03-26T12:05:52.471Z,0.93
2023-03-26T12:08:22.090Z,0.65
2023-03-26T12:10:59.800Z,0.90
2023-03-26T12:13:32.844Z,0.55
2023-03-26T12:16:05.373Z,0.77
2023-03-26T12:18:31.952Z,0.77
2023-03-26T12:21:08.549Z,0.52
2023-03-26T12:23:51.644Z,0.70
2023-03-26T12:26:20.134Z,0.63
2023-03-26T12:28:48.973Z,0.68
2023-03-26T12:31:17.784Z,0.70
2023-03-26T12:33:45.648Z,0.88
2023-03-26T12:36:24.765Z,0.65
2023-03-26T12:39:15.940Z,0.70
2023-03-26T12:44:42.569Z,0.88
2023-03-26T12:44:47.789Z,0.65
2023-03-26T12:48:00.848Z,0.57
2023-03-26T12:50:11.467Z,0.60
2023-03-26T12:52:50.124Z,0.50
2023-03-26T12:55:36.296Z,0.70
2023-03-26T12:58:16.719Z,1.00
2023-03-26T13:00:54.094Z,0.82
2023-03-26T13:03:33.247Z,0.90
2023-03-26T13:06:15.010Z,0.70
2023-03-26T13:09:04.244Z,0.90
2023-03-26T13:11:41.817Z,0.68
2023-03-26T13:14:21.037Z,0.85
2023-03-26T13:16:55.157Z,0.52
2023-03-26T13:19:27.562Z,0.98
2023-03-26T13:22:05.978Z,0.70
2023-03-26T13:24:46.852Z,0.70
2023-03-26T13:27:26.925Z,0.95
2023-03-26T13:30:00.414Z,0.88
2023-03-26T13:32:37.033Z,1.08
2023-03-26T13:35:18.050Z,1.00
2023-03-26T13:37:51.535Z,0.88
2023-03-26T13:40:31.017Z,0.77
2023-03-26T13:43:18.049Z,0.85
2023-03-26T13:45:55.822Z,0.82
2023-03-26T13:48:26.412Z,0.73
2023-03-26T13:51:00.294Z,0.95
2023-03-26T13:53:32.017Z,0.80
2023-03-26T13:56:00.566Z,0.73
2023-03-26T13:58:35.776Z,0.65
2023-03-26T14:01:06.862Z,0.77
2023-03-26T14:03:44.497Z,0.80
2023-03-26T14:06:18.388Z,1.20
2023-03-26T14:08:51.091Z,1.10
2023-03-26T14:11:25.310Z,0.88
2023-03-26T14:13:57.915Z,0.90
2023-03-26T14:16:29.853Z,1.00
2023-03-26T14:19:03.415Z,0.75
2023-03-26T14:21:47.435Z,1.00
2023-03-26T14:24:34.568Z,1.00
2023-03-26T14:27:15.082Z,0.98
2023-03-26T14:29:56.846Z,0.80
2023-03-26T14:32:41.807Z,0.75
2023-03-26T14:35:26.641Z,0.98
2023-03-26T14:38:06.149Z,0.90
2023-03-26T14:40:49.711Z,1.00
2023-03-26T14:43:47.452Z,0.90
2023-03-26T14:46:26.523Z,0.90
2023-03-26T14:49:06.839Z,1.10
2023-03-26T14:51:47.703Z,0.88
2023-03-26T14:54:18.688Z,1.05
2023-03-26T14:56:56.859Z,1.00
2023-03-26T14:59:47.107Z,0.95
2023-03-26T15:02:46.267Z,0.70
2023-03-26T15:05:45.375Z,0.65
2023-03-26T15:08:48.735Z,1.00
2023-03-26T15:11:25.272Z,1.00
2023-03-26T15:14:19.591Z,0.52
2023-03-26T15:17:10.699Z,0.82
2023-03-26T15:20:05.289Z,0.73
2023-03-26T15:25:31.923Z,0.70
2023-03-26T15:28:26.876Z,0.80
2023-03-26T15:31:17.452Z,0.85
2023-03-26T15:34:03.794Z,0.80
2023-03-26T15:37:00.808Z,0.88
2023-03-26T15:39:41.465Z,0.60
2023-03-26T15:42:17.809Z,0.80
2023-03-26T15:44:54.517Z,0.82
2023-03-26T15:47:41.254Z,0.77
2023-03-26T15:50:22.685Z,0.90
2023-03-26T15:52:56.791Z,0.82
2023-03-26T15:55:30.073Z,1.13
2023-03-26T15:58:04.530Z,1.02
2023-03-26T16:00:35.058Z,0.70
2023-03-26T16:03:19.338Z,1.17
2023-03-26T16:10:56.666Z,0.70
2023-03-26T16:13:34.299Z,0.55
2023-03-26T16:16:20.636Z,0.80
2023-03-26T16:18:53.583Z,0.75
2023-03-26T16:21:43.085Z,0.80
2023-03-26T16:24:23.022Z,0.90
2023-03-26T16:27:00.919Z,0.73
2023-03-26T16:29:28.181Z,0.90
2023-03-26T16:32:14.698Z,0.68
2023-03-26T16:34:48.814Z,0.80
2023-03-26T16:39:54.229Z,0.88
2023-03-26T16:42:32.062Z,0.88
2023-03-26T16:45:11.839Z,0.52
2023-03-26T16:47:51.181Z,0.70
2023-03-26T16:50:24.805Z,0.30
2023-03-26T16:53:00.048Z,0.55
2023-03-26T16:55:41.157Z,0.70
2023-03-26T16:58:15.704Z,0.70
2023-03-26T17:00:48.154Z,0.47
2023-03-26T17:03:25.396Z,0.40
2023-03-26T17:06:04.811Z,0.60
2023-03-26T17:08:39.650Z,0.50
2023-03-26T17:11:20.634Z,0.47
2023-03-26T17:13:57.223Z,0.50
2023-03-26T17:16:28.629Z,0.45
2023-03-26T17:19:01.235Z,0.50
2023-03-26T17:21:45.769Z,0.70
2023-03-26T17:24:25.097Z,0.38
2023-03-26T17:27:01.173Z,0.38
2023-03-26T17:29:38.241Z,0.50
2023-03-26T17:32:09.020Z,0.38
2023-03-26T17:34:43.440Z,0.40
2023-03-26T17:37:25.102Z,0.50
2023-03-26T17:40:16.414Z,0.60
2023-03-26T17:45:37.842Z,0.50
2023-03-26T17:48:12.712Z,0.52
2023-03-26T17:50:46.862Z,0.35
2023-03-26T17:53:20.403Z,0.55
2023-03-26T17:55:50.122Z,0.28
2023-03-26T17:58:24.915Z,0.38
2023-03-26T18:01:02.580Z,0.30
2023-03-26T18:03:32.780Z,0.57
2023-03-26T18:06:06.859Z,0.22
2023-03-26T18:08:43.337Z,0.32
2023-03-26T18:11:24.404Z,0.40
2023-03-26T18:14:18.008Z,0.40
2023-03-26T18:16:48.574Z,0.32
2023-03-26T18:19:16.392Z,0.35
2023-03-26T18:21:43.446Z,0.32
2023-03-26T18:24:15.253Z,0.20
2023-03-26T18:26:43.740Z,0.30
2023-03-26T18:29:19.568Z,0.40
2023-03-26T18:31:48.822Z,0.22
2023-03-26T18:34:17.427Z,0.50
2023-03-26T18:36:45.127Z,0.40
2023-03-26T18:39:13.147Z,0.60
2023-03-26T18:41:41.022Z,0.32
2023-03-26T18:44:13.629Z,0.30
2023-03-26T18:46:41.023Z,0.32
2023-03-26T18:49:12.153Z,0.45
2023-03-26T18:51:50.128Z,0.70
2023-03-26T18:56:49.808Z,0.45
2023-03-26T18:59:25.487Z,0.40
2023-03-26T19:01:52.330Z,0.25
2023-03-26T19:04:20.229Z,0.40
2023-03-26T19:06:46.940Z,0.40
2023-03-26T19:09:28.632Z,0.50
2023-03-26T19:12:05.525Z,0.40
2023-03-26T19:14:31.994Z,0.50
2023-03-26T19:17:00.569Z,0.57
2023-03-26T19:19:32.394Z,0.55
2023-03-26T19:21:59.830Z,0.50
2023-03-26T19:24:26.946Z,0.45
2023-03-26T19:26:53.866Z,0.38
2023-03-26T19:29:27.192Z,0.38
2023-03-26T19:32:01.885Z,0.60
2023-03-26T19:34:34.836Z,0.40
2023-03-26T19:37:03.956Z,0.40
2023-03-26T19:39:39.170Z,0.70
2023-03-26T19:42:07.370Z,0.52
2023-03-26T19:44:37.838Z,0.40
2023-03-26T19:47:07.556Z,0.60
2023-03-26T19:49:48.177Z,0.50
2023-03-26T19:52:16.427Z,0.55
2023-03-26T19:54:59.788Z,0.50
2023-03-26T19:57:28.332Z,0.50
2023-03-26T19:59:54.783Z,0.50
2023-03-26T20:02:21.754Z,0.43
2023-03-26T20:04:50.207Z,0.57
2023-03-26T20:07:18.630Z,0.45
2023-03-26T20:09:45.343Z,0.50
2023-03-26T20:12:12.593Z,0.50
2023-03-26T20:14:39.360Z,0.47
2023-03-26T20:17:11.839Z,0.47
2023-03-26T20:19:38.305Z,0.50
2023-03-26T20:22:07.387Z,0.88
2023-03-26T20:24:34.502Z,0.45
2023-03-26T20:27:01.037Z,0.77
2023-03-26T20:29:27.619Z,0.82
2023-03-26T20:31:54.106Z,0.73
2023-03-26T20:34:22.701Z,0.60
2023-03-26T20:36:49.725Z,0.90
2023-03-26T20:39:17.548Z,0.98
2023-03-26T20:41:45.935Z,0.82
2023-03-26T20:44:14.232Z,1.05
2023-03-26T20:46:41.304Z,0.93
2023-03-26T20:49:07.830Z,1.00
2023-03-26T20:51:34.278Z,1.25
2023-03-26T20:54:00.816Z,1.08
2023-03-26T20:56:28.656Z,1.00
2023-03-26T20:59:09.617Z,1.10
2023-03-26T21:01:38.163Z,1.20
2023-03-26T21:04:04.991Z,1.30
2023-03-26T21:06:31.659Z,1.13
2023-03-26T21:08:58.616Z,1.35
2023-03-26T21:11:36.704Z,1.17
2023-03-26T21:14:07.862Z,1.15
2023-03-26T21:16:35.016Z,1.40
2023-03-26T21:19:01.930Z,1.15
2023-03-26T21:21:47.045Z,1.60
2023-03-26T21:24:23.435Z,1.42
2023-03-26T21:26:58.536Z,1.23
2023-03-26T21:29:25.695Z,1.30
2023-03-26T21:31:54.195Z,1.38
2023-03-26T21:34:21.469Z,1.27
2023-03-26T21:36:48.542Z,1.10
2023-03-26T21:39:15.374Z,1.55
2023-03-26T21:41:46.668Z,1.65
2023-03-26T21:44:14.528Z,1.90
2023-03-26T21:46:42.278Z,1.63
2023-03-26T21:49:09.107Z,1.30
2023-03-26T21:51:36.078Z,1.20
2023-03-26T21:54:03.082Z,1.42
2023-03-26T21:56:44.231Z,1.67
2023-03-26T21:59:19.179Z,1.13
2023-03-26T22:01:52.573Z,1.42
2023-03-26T22:04:28.455Z,1.92
2023-03-26T22:07:00.813Z,1.08
2023-03-26T22:12:00.288Z,1.30
2023-03-26T22:14:28.074Z,1.52
2023-03-26T22:16:54.571Z,1.30
2023-03-26T22:19:21.072Z,1.27
2023-03-26T22:21:47.501Z,1.33
2023-03-26T22:24:13.941Z,1.65
2023-03-26T22:26:40.399Z,1.20
2023-03-26T22:29:06.908Z,1.20
2023-03-26T22:31:37.304Z,1.48
2023-03-26T22:34:03.904Z,1.65
2023-03-26T22:36:30.751Z,1.00
2023-03-26T22:38:57.227Z,1.60
2023-03-26T22:41:24.118Z,1.38
2023-03-26T22:43:50.763Z,1.60
2023-03-26T22:46:17.421Z,1.40
2023-03-26T22:48:45.254Z,1.33
2023-03-26T22:51:11.738Z,1.50
2023-03-26T22:53:38.225Z,1.50
2023-03-26T22:56:05.168Z,1.70
2023-03-26T22:58:33.338Z,1.40
2023-03-26T23:01:02.944Z,1.52
2023-03-26T23:03:35.173Z,1.75
2023-03-26T23:06:05.697Z,1.20
2023-03-26T23:08:32.881Z,1.52
2023-03-26T23:10:59.389Z,1.48
2023-03-26T23:13:26.237Z,1.27
2023-03-26T23:15:54.770Z,1.45
2023-03-26T23:18:22.442Z,1.65
2023-03-26T23:20:49.804Z,1.38
2023-03-26T23:23:17.606Z,1.38
2023-03-26T23:25:44.493Z,1.60
2023-03-26T23:28:10.959Z,1.50
2023-03-26T23:30:37.648Z,1.60
2023-03-26T23:33:04.196Z,1.35
2023-03-26T23:35:30.708Z,1.55
2023-03-26T23:37:57.316Z,1.83
2023-03-26T23:40:25.124Z,1.70
2023-03-26T23:42:51.641Z,1.13
2023-03-26T23:45:18.141Z,1.50
2023-03-26T23:47:44.606Z,1.45
2023-03-26T23:50:11.277Z,1.60
2023-03-26T23:52:37.834Z,1.67
2023-03-26T23:55:05.035Z,1.50
2023-03-26T23:57:32.799Z,1.33
2023-03-26T23:59:59.297Z,1.50
